Terminal Aerodrome Forecast
Issued by NWS Wakefield, VA

Home | Current Version | Previous Version | Text Only | Print | Product List | Glossary On
Versions: 1 2 3 4 5 6 7 8 9 10 11 12 13 14
000
FTUS41 KAKQ 210500
TAFRIC
TAF
KRIC 210520Z 2106/2206 00000KT P6SM OVC080
     FM211000 04003KT P6SM SCT080
     FM211500 06004KT P6SM SKC=

USA.gov is the U.S. government's official web portal to all federal, state and local government web resources and services.